Portada
METAR-TAF:

METAR-TAF

Aeropuertos :

Aeropuerto Internacional de Malé

Malé, Maldivas

latitud: 04-12N, longitud: 073-32E, altitud: 2 m

Observación

El informe se hizo hace 1 hora y 28 minutos, a las 12:00 UTC
Viento 13 kt del este
Temperatura 30°C
Humedad 70%
Presión 1008 hPa
Visibilidad 10 km o más
Nubes dispersas a una altura de 1800 ft

METAR: VRMM 171200Z 08013KT 9999 SCT018 30/24 Q1008 NOSIG

Hora: 18:28 (13:28 UTC)

Pronóstico

El informe se hizo hace 2 horas y 28 minutos, a las 11:00 UTC
Pronóstico válido del 17 a las 12 UTC al 18 a las 18 UTC
Viento 13 kt del este
Visibilidad: 9000 m
Escasas nubes a una altura de 1800 ft
Temporalmente
del 17 a las 12 UTC al 17 a las 18 UTC
Escasas nubes a una altura de 1900 ft, Cumulonimbus.

TAF: VRMM 171100Z 1712/1818 08013KT 9000 FEW018 TEMPO 1712/1718 FEW019CB

Observaciones y pronósticos meteorológicos de más de 4000 aeropuertos (mensajes METAR y TAF).

Los puntos amarillos y rojos representan las estaciones disponibles.

Ponga el ratón en el punto deseado para ver el nombre de la estación.

Haga clic para ver las observaciones y los pronósticos meteorológicos.

Para cambiar el mapa : haga clic en los botones verdes con una cruz de color negro para hacer un zoom, en el botón verde con un guión para alejar o en las flechas verdes para mapas adyacentes.


METAR-TAF: